Aviation Digital Data Service (ADDS)

Output produced by METARs form (0039 UTC 25 April 2019)
found at http://www.aviationweather.gov/metar/data/
 
Forecast for: LROP (BUCHAREST/OTOPEN, RO)
Text: TAF LROP 242300Z 2500/2524 04012KT CAVOK
Forecast period: 0000 UTC 25 April 2019 to 0000 UTC 26 April 2019
Forecast type: FROM: standard forecast or significant change
Winds: from the NE (40 degrees) at 14 MPH (12 knots; 6.2 m/s)
Visibility: 6 or more miles 10+ km)
Ceiling: unknown
Clouds: missing
Weather: NSW  (no significant weather)
Text: PROB30
Forecast period: 0100 to 0400 UTC 25 April 2019
Forecast type: TEMPORARY: The following changes expected for less than half the time period
Visibility: 1.86 miles (2.99 km)
Ceiling: 500 feet AGL
Clouds: broken clouds at 500 feet AGL
Weather: BR  (mist)